Аэропорт: Петропавловск. Петропавловск

ICAO: UACP

METAR:
2022-01-28 08:30:00
UACP 280830Z 21002MPS 9999 OVC025 M08/M10 Q1024 NOSIG RMK QFE755/1007
METAR:
2022-01-28 05:01:00
TAF UACP 280501Z 2806/2815 20004MPS 9999 BKN010 OVC030CB TEMPO 2806/2809 3100 -SHSN BKN008 OVC030CB BECMG 2809/2811 16004MPS